createdAt,value
2017-07-03T00:01:27.091Z,15.80
2017-07-03T00:03:55.268Z,15.80
2017-07-03T00:06:22.691Z,15.80
2017-07-03T00:08:50.100Z,15.80
2017-07-03T00:11:17.523Z,15.70
2017-07-03T00:13:45.704Z,15.80
2017-07-03T00:16:13.888Z,15.80
2017-07-03T00:18:41.310Z,15.70
2017-07-03T00:21:08.720Z,15.70
2017-07-03T00:23:36.137Z,15.60
2017-07-03T00:26:04.311Z,15.50
2017-07-03T00:28:32.499Z,15.40
2017-07-03T00:30:59.914Z,15.40
2017-07-03T00:33:27.331Z,15.40
2017-07-03T00:35:54.738Z,15.40
2017-07-03T00:38:22.152Z,15.30
2017-07-03T00:40:49.563Z,15.10
2017-07-03T00:43:17.749Z,15.00
2017-07-03T00:45:45.927Z,15.00
2017-07-03T00:48:13.347Z,15.00
2017-07-03T00:50:40.754Z,15.00
2017-07-03T00:53:08.164Z,15.00
2017-07-03T00:55:35.583Z,15.00
2017-07-03T00:58:03.003Z,14.90
2017-07-03T01:00:31.199Z,14.90
2017-07-03T01:02:58.607Z,14.80
2017-07-03T01:05:26.014Z,14.90
2017-07-03T01:07:53.423Z,14.90
2017-07-03T01:10:21.595Z,14.80
2017-07-03T01:12:49.819Z,14.70
2017-07-03T01:15:17.249Z,14.70
2017-07-03T01:17:44.662Z,14.70
2017-07-03T01:20:12.080Z,14.60
2017-07-03T01:22:39.491Z,14.50
2017-07-03T01:25:06.907Z,14.50
2017-07-03T01:27:34.332Z,14.40
2017-07-03T01:30:01.736Z,14.40
2017-07-03T01:32:29.163Z,14.40
2017-07-03T01:34:56.609Z,14.40
2017-07-03T01:37:24.031Z,14.40
2017-07-03T01:39:52.203Z,14.30
2017-07-03T01:42:20.387Z,14.20
2017-07-03T01:44:47.794Z,14.20
2017-07-03T01:47:15.224Z,14.20
2017-07-03T01:49:42.639Z,14.10
2017-07-03T01:52:10.046Z,14.10
2017-07-03T01:54:37.463Z,14.10
2017-07-03T01:57:05.660Z,14.00
2017-07-03T01:59:33.076Z,14.00
2017-07-03T02:02:00.499Z,14.10
2017-07-03T02:04:27.912Z,14.00
2017-07-03T02:06:55.323Z,14.00
2017-07-03T02:09:22.747Z,14.00
2017-07-03T02:11:50.151Z,14.00
2017-07-03T02:14:17.670Z,14.00
2017-07-03T02:16:45.083Z,13.90
2017-07-03T02:19:13.259Z,13.90
2017-07-03T02:21:40.674Z,13.90
2017-07-03T02:24:08.825Z,13.90
2017-07-03T02:26:36.247Z,13.80
2017-07-03T02:29:03.669Z,13.80
2017-07-03T02:31:31.475Z,13.80
2017-07-03T02:33:58.899Z,13.80
2017-07-03T02:36:26.316Z,13.80
2017-07-03T02:38:53.736Z,13.70
2017-07-03T02:41:21.916Z,13.70
2017-07-03T02:43:49.331Z,13.70
2017-07-03T02:46:16.746Z,13.70
2017-07-03T02:48:44.159Z,13.70
2017-07-03T02:51:11.570Z,13.70
2017-07-03T02:53:38.990Z,13.70
2017-07-03T02:56:06.402Z,13.70
2017-07-03T02:58:33.819Z,13.60
2017-07-03T03:01:01.246Z,13.60
2017-07-03T03:03:29.428Z,13.60
2017-07-03T03:05:57.610Z,13.60
2017-07-03T03:08:25.027Z,13.50
2017-07-03T03:10:52.447Z,13.60
2017-07-03T03:13:20.565Z,13.60
2017-07-03T03:15:48.078Z,13.50
2017-07-03T03:18:15.507Z,13.50
2017-07-03T03:20:43.217Z,13.40
2017-07-03T03:23:10.627Z,13.40
2017-07-03T03:25:38.039Z,13.40
2017-07-03T03:28:05.463Z,13.50
2017-07-03T03:30:32.879Z,13.50
2017-07-03T03:33:01.063Z,13.50
2017-07-03T03:35:28.478Z,13.50
2017-07-03T03:37:55.905Z,13.50
2017-07-03T03:40:23.323Z,13.50
2017-07-03T03:42:51.515Z,13.50
2017-07-03T03:45:18.931Z,13.50
2017-07-03T03:47:46.348Z,13.50
2017-07-03T03:50:13.771Z,13.50
2017-07-03T03:52:41.187Z,13.50
2017-07-03T03:55:08.615Z,13.50
2017-07-03T03:57:36.034Z,13.60
2017-07-03T04:00:04.224Z,13.60
2017-07-03T04:02:31.644Z,13.50
2017-07-03T04:04:59.572Z,13.50
2017-07-03T04:07:26.983Z,13.50
2017-07-03T04:09:55.194Z,13.60
2017-07-03T04:12:22.608Z,13.50
2017-07-03T04:14:50.782Z,13.60
2017-07-03T04:17:18.972Z,13.60
2017-07-03T04:19:46.391Z,13.50
2017-07-03T04:22:13.799Z,13.50
2017-07-03T04:24:41.224Z,13.60
2017-07-03T04:27:09.411Z,13.60
2017-07-03T04:29:36.972Z,13.60
2017-07-03T04:32:04.387Z,13.60
2017-07-03T04:34:31.848Z,13.70
2017-07-03T04:36:59.267Z,13.70
2017-07-03T04:39:26.689Z,13.70
2017-07-03T04:41:54.868Z,13.70
2017-07-03T04:44:22.292Z,13.70
2017-07-03T04:46:49.711Z,13.80
2017-07-03T04:49:17.128Z,13.90
2017-07-03T04:51:45.314Z,13.90
2017-07-03T04:54:12.734Z,13.80
2017-07-03T04:56:40.155Z,14.00
2017-07-03T04:59:07.575Z,14.00
2017-07-03T05:01:35.755Z,14.10
2017-07-03T05:04:03.171Z,14.10
2017-07-03T05:06:30.591Z,14.10
2017-07-03T05:08:58.023Z,14.10
2017-07-03T05:11:25.443Z,14.10
2017-07-03T05:13:52.863Z,14.10
2017-07-03T05:16:20.288Z,14.20
2017-07-03T05:18:47.698Z,14.20
2017-07-03T05:21:15.130Z,14.20
2017-07-03T05:23:42.542Z,14.20
2017-07-03T05:26:10.728Z,14.40
2017-07-03T05:28:38.144Z,14.40
2017-07-03T05:31:05.563Z,14.50
2017-07-03T05:33:32.998Z,14.50
2017-07-03T05:36:00.417Z,14.50
2017-07-03T05:38:27.832Z,14.50
2017-07-03T05:40:55.240Z,14.60
2017-07-03T05:43:29.655Z,14.70
2017-07-03T05:45:57.070Z,14.70
2017-07-03T05:48:24.495Z,14.80
2017-07-03T05:50:51.909Z,14.80
2017-07-03T05:53:19.324Z,14.90
2017-07-03T05:55:46.743Z,14.90
2017-07-03T05:58:15.000Z,14.90
2017-07-03T06:00:42.419Z,15.00
2017-07-03T06:03:09.843Z,15.10
2017-07-03T06:05:38.020Z,15.10
2017-07-03T06:08:05.436Z,15.10
2017-07-03T06:10:32.866Z,15.20
2017-07-03T06:13:00.291Z,15.20
2017-07-03T06:15:27.711Z,15.30
2017-07-03T06:17:55.234Z,15.30
2017-07-03T06:20:22.643Z,15.40
2017-07-03T06:22:50.823Z,15.50
2017-07-03T06:25:19.014Z,15.60
2017-07-03T06:27:46.440Z,15.60
2017-07-03T06:30:14.367Z,15.70
2017-07-03T06:32:41.798Z,15.80
2017-07-03T06:35:09.287Z,15.80
2017-07-03T06:37:36.732Z,15.80
2017-07-03T06:40:04.155Z,15.80
2017-07-03T06:42:31.571Z,16.00
2017-07-03T06:44:58.987Z,16.20
2017-07-03T06:47:26.395Z,16.30
2017-07-03T06:49:54.583Z,16.40
2017-07-03T06:52:22.768Z,16.50
2017-07-03T06:54:50.185Z,16.40
2017-07-03T06:57:18.391Z,16.80
2017-07-03T06:59:45.803Z,16.80
2017-07-03T07:02:14.640Z,16.70
2017-07-03T07:04:42.155Z,16.50
2017-07-03T07:07:09.575Z,16.30
2017-07-03T07:09:36.986Z,16.30
2017-07-03T07:12:04.923Z,16.30
2017-07-03T07:14:32.338Z,16.30
2017-07-03T07:16:59.742Z,16.40
2017-07-03T07:19:27.167Z,16.50
2017-07-03T07:21:54.575Z,16.60
2017-07-03T07:24:22.771Z,16.50
2017-07-03T07:26:50.182Z,16.50
2017-07-03T07:29:17.615Z,16.60
2017-07-03T07:31:45.022Z,16.80
2017-07-03T07:34:13.195Z,17.10
2017-07-03T07:36:41.374Z,17.20
2017-07-03T07:39:09.583Z,17.30
2017-07-03T07:41:37.021Z,17.30
2017-07-03T07:44:04.459Z,17.20
2017-07-03T07:46:32.641Z,17.10
2017-07-03T07:49:00.064Z,17.10
2017-07-03T07:51:27.471Z,17.00
2017-07-03T07:53:54.921Z,16.90
2017-07-03T07:56:22.336Z,16.80
2017-07-03T07:58:49.751Z,16.80
2017-07-03T08:01:17.201Z,16.80
2017-07-03T08:03:44.598Z,16.90
2017-07-03T08:06:12.013Z,17.00
2017-07-03T08:08:39.443Z,17.00
2017-07-03T08:11:07.618Z,17.00
2017-07-03T08:13:35.274Z,16.90
2017-07-03T08:16:02.699Z,16.90
2017-07-03T08:18:30.113Z,16.80
2017-07-03T08:20:57.522Z,16.90
2017-07-03T08:23:24.935Z,17.10
2017-07-03T08:25:52.351Z,17.10
2017-07-03T08:28:19.780Z,17.10
2017-07-03T08:30:47.188Z,17.20
2017-07-03T08:33:14.595Z,17.30
2017-07-03T08:35:42.025Z,17.30
2017-07-03T08:38:09.434Z,17.40
2017-07-03T08:40:36.860Z,17.50
2017-07-03T08:43:04.264Z,17.60
2017-07-03T08:45:31.687Z,17.70
2017-07-03T08:47:59.859Z,17.80
2017-07-03T08:50:28.063Z,17.90
2017-07-03T08:52:55.467Z,17.90
2017-07-03T08:55:22.880Z,17.90
2017-07-03T08:57:50.282Z,18.00
2017-07-03T09:00:17.708Z,17.90
2017-07-03T09:02:45.127Z,18.00
2017-07-03T09:05:12.559Z,18.00
2017-07-03T09:07:40.735Z,18.10
2017-07-03T09:10:08.959Z,18.10
2017-07-03T09:12:36.355Z,18.10
2017-07-03T09:15:03.771Z,18.10
2017-07-03T09:17:31.187Z,18.30
2017-07-03T09:19:59.495Z,18.40
2017-07-03T09:22:27.363Z,18.30
2017-07-03T09:24:54.778Z,18.40
2017-07-03T09:27:22.955Z,18.50
2017-07-03T09:29:51.131Z,18.50
2017-07-03T09:32:18.552Z,18.50
2017-07-03T09:34:45.987Z,18.50
2017-07-03T09:37:13.393Z,18.50
2017-07-03T09:39:41.571Z,18.60
2017-07-03T09:42:09.748Z,18.60
2017-07-03T09:44:37.187Z,18.60
2017-07-03T09:47:05.374Z,18.80
2017-07-03T09:49:33.550Z,18.80
2017-07-03T09:52:01.739Z,18.90
2017-07-03T09:54:29.151Z,18.90
2017-07-03T09:56:56.560Z,19.00
2017-07-03T09:59:24.008Z,19.10
2017-07-03T10:01:51.420Z,19.20
2017-07-03T10:04:18.839Z,19.30
2017-07-03T10:06:46.248Z,19.40
2017-07-03T10:09:14.419Z,19.50
2017-07-03T10:11:41.839Z,19.50
2017-07-03T10:14:09.247Z,19.60
2017-07-03T10:16:37.429Z,19.70
2017-07-03T10:19:05.596Z,19.70
2017-07-03T10:21:33.015Z,19.70
2017-07-03T10:24:00.428Z,19.70
2017-07-03T10:26:27.833Z,19.70
2017-07-03T10:28:55.252Z,19.60
2017-07-03T10:31:22.655Z,19.90
2017-07-03T10:33:50.834Z,20.00
2017-07-03T10:36:19.011Z,20.00
2017-07-03T10:38:47.200Z,20.00
2017-07-03T10:41:14.602Z,20.00
2017-07-03T10:43:42.033Z,20.10
2017-07-03T10:46:09.444Z,20.10
2017-07-03T10:48:36.851Z,19.90
2017-07-03T10:51:04.284Z,20.00
2017-07-03T10:53:31.699Z,20.10
2017-07-03T10:55:59.115Z,20.10
2017-07-03T10:58:26.523Z,20.10
2017-07-03T11:00:54.698Z,20.30
2017-07-03T11:03:22.874Z,20.30
2017-07-03T11:05:51.051Z,20.40
2017-07-03T11:08:18.564Z,20.40
2017-07-03T11:10:45.979Z,20.50
2017-07-03T11:13:13.387Z,20.60
2017-07-03T11:15:40.815Z,20.70
2017-07-03T11:18:08.232Z,20.60
2017-07-03T11:20:36.408Z,20.60
2017-07-03T11:23:04.604Z,20.70
2017-07-03T11:25:32.008Z,20.60
2017-07-03T11:27:59.804Z,20.80
2017-07-03T11:30:27.983Z,21.00
2017-07-03T11:32:55.398Z,21.00
2017-07-03T11:35:22.812Z,21.10
2017-07-03T11:37:50.231Z,21.10
2017-07-03T11:40:17.639Z,21.10
2017-07-03T11:42:45.098Z,21.30
2017-07-03T11:45:12.523Z,21.30
2017-07-03T11:47:39.931Z,21.40
2017-07-03T11:50:13.349Z,21.50
2017-07-03T11:52:40.755Z,21.50
2017-07-03T11:55:08.834Z,21.60
2017-07-03T11:57:36.253Z,21.70
2017-07-03T12:00:04.444Z,22.20
2017-07-03T12:02:31.915Z,22.20
2017-07-03T12:04:59.323Z,22.30
2017-07-03T12:07:27.499Z,22.50
2017-07-03T12:09:54.919Z,22.50
2017-07-03T12:12:22.388Z,22.70
2017-07-03T12:14:49.795Z,22.90
2017-07-03T12:17:17.417Z,23.00
2017-07-03T12:19:45.604Z,23.30
2017-07-03T12:22:13.779Z,23.30
2017-07-03T12:24:41.282Z,23.30
2017-07-03T12:27:08.690Z,23.60
2017-07-03T12:29:36.867Z,24.00
2017-07-03T12:32:05.049Z,24.60
2017-07-03T12:34:33.221Z,25.40
2017-07-03T12:37:00.763Z,25.30
2017-07-03T12:39:28.943Z,26.30
2017-07-03T12:41:57.163Z,27.00
2017-07-03T12:44:24.559Z,26.90
2017-07-03T12:46:51.990Z,27.40
2017-07-03T12:49:19.407Z,27.80
2017-07-03T12:51:46.816Z,27.60
2017-07-03T12:54:14.239Z,28.20
2017-07-03T12:56:41.647Z,27.90
2017-07-03T12:59:09.828Z,28.50
2017-07-03T13:01:38.227Z,28.20
2017-07-03T13:04:05.703Z,28.20
2017-07-03T13:06:33.126Z,29.30
2017-07-03T13:09:01.295Z,31.00
2017-07-03T13:11:29.474Z,31.00
2017-07-03T13:13:57.643Z,31.30
2017-07-03T13:16:25.871Z,31.50
2017-07-03T13:18:53.289Z,31.40
2017-07-03T13:21:20.703Z,31.00
2017-07-03T13:23:48.111Z,30.70
2017-07-03T13:26:15.571Z,31.80
2017-07-03T13:28:42.983Z,32.30
2017-07-03T13:31:11.007Z,32.50
2017-07-03T13:33:38.428Z,32.50
2017-07-03T13:36:06.602Z,31.90
2017-07-03T13:38:34.020Z,31.90
2017-07-03T13:41:01.448Z,31.90
2017-07-03T13:43:29.163Z,31.60
2017-07-03T13:45:57.347Z,31.30
2017-07-03T13:48:25.528Z,30.60
2017-07-03T13:50:52.980Z,30.50
2017-07-03T13:53:20.910Z,30.20
2017-07-03T13:55:48.328Z,29.60
2017-07-03T13:58:15.739Z,29.00
2017-07-03T14:00:43.462Z,28.70
2017-07-03T14:03:10.847Z,28.70
2017-07-03T14:05:38.264Z,28.30
2017-07-03T14:08:06.093Z,28.30
2017-07-03T14:10:34.274Z,28.00
2017-07-03T14:13:02.127Z,28.00
2017-07-03T14:15:30.340Z,30.10
2017-07-03T14:17:57.810Z,30.10
2017-07-03T14:20:25.222Z,31.90
2017-07-03T14:22:53.167Z,30.10
2017-07-03T14:25:20.675Z,28.80
2017-07-03T14:27:48.087Z,28.10
2017-07-03T14:30:16.546Z,26.70
2017-07-03T14:32:43.963Z,26.70
2017-07-03T14:35:11.375Z,26.20
2017-07-03T14:37:39.550Z,25.20
2017-07-03T14:40:07.726Z,25.00
2017-07-03T14:42:35.915Z,24.90
2017-07-03T14:45:04.130Z,24.90
2017-07-03T14:47:31.581Z,24.90
2017-07-03T14:49:59.691Z,24.70
2017-07-03T14:52:27.282Z,24.70
2017-07-03T14:54:54.696Z,24.60
2017-07-03T14:57:22.115Z,24.50
2017-07-03T14:59:49.524Z,24.30
2017-07-03T15:02:16.939Z,24.10
2017-07-03T15:04:44.347Z,24.00
2017-07-03T15:07:12.523Z,24.20
2017-07-03T15:09:40.643Z,24.10
2017-07-03T15:12:08.063Z,24.40
2017-07-03T15:14:35.495Z,24.80
2017-07-03T15:17:03.679Z,24.90
2017-07-03T15:19:31.847Z,25.00
2017-07-03T15:22:00.033Z,25.00
2017-07-03T15:24:28.223Z,25.20
2017-07-03T15:26:55.647Z,25.20
2017-07-03T15:29:23.966Z,25.20
2017-07-03T15:31:51.384Z,25.10
2017-07-03T15:34:19.918Z,24.60
2017-07-03T15:36:47.331Z,24.60
2017-07-03T15:39:15.514Z,24.10
2017-07-03T15:41:42.934Z,24.10
2017-07-03T15:44:10.338Z,23.90
2017-07-03T15:46:37.806Z,23.70
2017-07-03T15:49:05.218Z,23.70
2017-07-03T15:51:33.407Z,23.60
2017-07-03T15:54:01.574Z,23.50
2017-07-03T15:56:29.758Z,23.50
2017-07-03T15:58:57.171Z,23.50
2017-07-03T16:01:24.579Z,23.50
2017-07-03T16:03:51.995Z,23.40
2017-07-03T16:06:19.475Z,23.40
2017-07-03T16:08:47.652Z,23.30
2017-07-03T16:11:15.058Z,23.30
2017-07-03T16:13:42.482Z,23.40
2017-07-03T16:16:09.899Z,23.60
2017-07-03T16:18:38.079Z,23.70
2017-07-03T16:21:06.256Z,23.40
2017-07-03T16:23:34.427Z,23.40
2017-07-03T16:26:02.610Z,23.30
2017-07-03T16:28:30.019Z,23.30
2017-07-03T16:30:57.431Z,23.30
2017-07-03T16:33:24.860Z,23.20
2017-07-03T16:35:53.055Z,23.20
2017-07-03T16:38:20.464Z,23.20
2017-07-03T16:40:47.879Z,23.10
2017-07-03T16:43:15.299Z,23.00
2017-07-03T16:45:43.478Z,22.80
2017-07-03T16:48:11.674Z,22.80
2017-07-03T16:50:39.083Z,22.80
2017-07-03T16:53:06.491Z,22.80
2017-07-03T16:55:33.907Z,22.80
2017-07-03T16:58:01.323Z,22.70
2017-07-03T17:00:29.251Z,22.70
2017-07-03T17:02:57.432Z,22.70
2017-07-03T17:05:24.845Z,22.70
2017-07-03T17:07:52.260Z,22.80
2017-07-03T17:10:19.687Z,23.00
2017-07-03T17:12:47.949Z,23.40
2017-07-03T17:15:15.337Z,23.40
2017-07-03T17:17:42.754Z,23.60
2017-07-03T17:20:10.176Z,23.70
2017-07-03T17:22:37.582Z,23.70
2017-07-03T17:25:05.757Z,23.60
2017-07-03T17:27:33.926Z,23.60
2017-07-03T17:30:02.107Z,23.40
2017-07-03T17:32:30.292Z,23.30
2017-07-03T17:34:57.742Z,23.20
2017-07-03T17:37:25.135Z,23.00
2017-07-03T17:39:52.551Z,22.80
2017-07-03T17:42:20.729Z,22.70
2017-07-03T17:44:48.899Z,22.60
2017-07-03T17:47:16.307Z,22.50
2017-07-03T17:49:43.736Z,22.50
2017-07-03T17:52:11.145Z,22.30
2017-07-03T17:54:38.546Z,22.20
2017-07-03T17:57:05.959Z,22.20
2017-07-03T17:59:34.184Z,22.00
2017-07-03T18:02:01.599Z,21.90
2017-07-03T18:04:29.785Z,21.90
2017-07-03T18:06:57.203Z,21.80
2017-07-03T18:09:24.620Z,21.80
2017-07-03T18:11:52.042Z,21.70
2017-07-03T18:14:20.230Z,21.60
2017-07-03T18:16:47.655Z,21.60
2017-07-03T18:19:15.067Z,21.60
2017-07-03T18:21:42.498Z,21.50
2017-07-03T18:24:10.671Z,21.30
2017-07-03T18:26:38.150Z,21.30
2017-07-03T18:29:05.578Z,21.30
2017-07-03T18:31:33.760Z,21.20
2017-07-03T18:34:01.238Z,21.20
2017-07-03T18:36:28.668Z,21.20
2017-07-03T18:38:56.164Z,21.20
2017-07-03T18:41:23.587Z,21.20
2017-07-03T18:43:51.007Z,21.10
2017-07-03T18:46:18.417Z,21.10
2017-07-03T18:48:45.850Z,21.00
2017-07-03T18:51:14.051Z,21.10
2017-07-03T18:53:41.481Z,21.10
2017-07-03T18:56:09.664Z,21.00
2017-07-03T18:58:37.066Z,21.00
2017-07-03T19:01:04.477Z,21.00
2017-07-03T19:03:31.898Z,20.90
2017-07-03T19:06:00.084Z,20.80
2017-07-03T19:08:28.305Z,20.70
2017-07-03T19:10:55.765Z,20.70
2017-07-03T19:13:23.188Z,20.70
2017-07-03T19:15:50.595Z,20.70
2017-07-03T19:18:18.011Z,20.70
2017-07-03T19:20:45.423Z,20.60
2017-07-03T19:23:13.615Z,20.60
2017-07-03T19:25:41.807Z,20.60
2017-07-03T19:28:09.212Z,20.50
2017-07-03T19:30:36.647Z,20.50
2017-07-03T19:33:04.071Z,20.50
2017-07-03T19:35:31.479Z,20.40
2017-07-03T19:37:58.911Z,20.50
2017-07-03T19:40:26.352Z,20.40
2017-07-03T19:42:53.799Z,20.40
2017-07-03T19:45:21.204Z,20.40
2017-07-03T19:47:48.616Z,20.30
2017-07-03T19:50:16.040Z,20.30
2017-07-03T19:52:44.228Z,20.40
2017-07-03T19:55:11.652Z,20.40
2017-07-03T19:57:39.062Z,20.30
2017-07-03T20:00:06.487Z,20.10
2017-07-03T20:02:34.667Z,19.30
2017-07-03T20:05:02.106Z,19.30
2017-07-03T20:07:30.292Z,18.60
2017-07-03T20:09:58.487Z,18.50
2017-07-03T20:12:25.897Z,18.50
2017-07-03T20:14:53.316Z,18.30
2017-07-03T20:17:20.732Z,18.20
2017-07-03T20:19:48.934Z,17.90
2017-07-03T20:22:16.339Z,17.90
2017-07-03T20:24:43.767Z,17.90
2017-07-03T20:27:11.183Z,17.80
2017-07-03T20:29:38.689Z,17.70
2017-07-03T20:32:06.104Z,17.80
2017-07-03T20:34:33.527Z,17.70
2017-07-03T20:37:02.076Z,17.50
2017-07-03T20:39:29.565Z,17.50
2017-07-03T20:41:56.986Z,17.50
2017-07-03T20:44:24.403Z,17.50
2017-07-03T20:46:51.815Z,17.50
2017-07-03T20:49:19.247Z,17.40
2017-07-03T20:51:46.673Z,17.40
2017-07-03T20:54:14.096Z,17.30
2017-07-03T20:56:41.506Z,17.30
2017-07-03T20:59:08.932Z,17.30
2017-07-03T21:01:36.351Z,17.40
2017-07-03T21:04:03.783Z,17.40
2017-07-03T21:06:31.239Z,17.30
2017-07-03T21:08:58.664Z,17.30
2017-07-03T21:11:26.171Z,17.30
2017-07-03T21:13:53.592Z,17.30
2017-07-03T21:16:21.030Z,17.20
2017-07-03T21:18:48.443Z,17.30
2017-07-03T21:21:16.678Z,17.20
2017-07-03T21:23:44.101Z,17.20
2017-07-03T21:26:11.587Z,17.20
2017-07-03T21:28:39.027Z,17.00
2017-07-03T21:31:06.447Z,17.10
2017-07-03T21:33:34.631Z,17.00
2017-07-03T21:36:02.060Z,17.00
2017-07-03T21:38:29.458Z,16.90
2017-07-03T21:40:56.941Z,16.90
2017-07-03T21:43:24.348Z,16.90
2017-07-03T21:45:52.539Z,16.90
2017-07-03T21:48:19.946Z,16.90
2017-07-03T21:50:47.360Z,16.90
2017-07-03T21:53:14.786Z,16.80
2017-07-03T21:55:42.981Z,16.70
2017-07-03T21:58:10.395Z,16.70
2017-07-03T22:00:37.847Z,16.70
2017-07-03T22:03:05.265Z,16.70
2017-07-03T22:05:32.675Z,16.70
2017-07-03T22:08:00.864Z,16.70
2017-07-03T22:10:28.287Z,16.70
2017-07-03T22:12:55.698Z,16.60
2017-07-03T22:15:23.107Z,16.60
2017-07-03T22:17:50.535Z,16.60
2017-07-03T22:20:17.957Z,16.60
2017-07-03T22:22:45.371Z,16.60
2017-07-03T22:25:12.808Z,16.60
2017-07-03T22:27:40.226Z,16.50
2017-07-03T22:30:07.647Z,16.50
2017-07-03T22:32:35.841Z,16.50
2017-07-03T22:35:04.019Z,16.50
2017-07-03T22:37:31.511Z,16.50
2017-07-03T22:39:58.935Z,16.40
2017-07-03T22:42:26.358Z,16.40
2017-07-03T22:44:54.539Z,16.40
2017-07-03T22:47:22.723Z,16.40
2017-07-03T22:49:50.903Z,16.30
2017-07-03T22:52:18.322Z,16.30
2017-07-03T22:54:45.741Z,16.30
2017-07-03T22:57:13.155Z,16.30
2017-07-03T22:59:41.350Z,16.30
2017-07-03T23:02:08.769Z,16.30
2017-07-03T23:04:36.195Z,16.20
2017-07-03T23:07:03.620Z,16.20
2017-07-03T23:09:31.037Z,16.20
2017-07-03T23:11:58.453Z,16.10
2017-07-03T23:14:25.860Z,16.10
2017-07-03T23:16:53.276Z,16.10
2017-07-03T23:19:20.708Z,16.10
2017-07-03T23:21:48.135Z,16.00
2017-07-03T23:24:15.567Z,16.00
2017-07-03T23:26:42.979Z,16.00
2017-07-03T23:29:10.409Z,15.90
2017-07-03T23:31:38.587Z,15.90
2017-07-03T23:34:06.009Z,15.90
2017-07-03T23:36:33.425Z,15.90
2017-07-03T23:39:00.856Z,15.80
2017-07-03T23:41:29.045Z,15.90
2017-07-03T23:43:56.467Z,15.80
2017-07-03T23:46:23.874Z,15.70
2017-07-03T23:48:51.292Z,15.70
2017-07-03T23:51:19.471Z,15.70
2017-07-03T23:53:47.408Z,15.70
2017-07-03T23:56:14.833Z,15.70
2017-07-03T23:58:42.248Z,15.70
